createdAt,value
2019-02-22T00:01:21.049Z,47.00
2019-02-22T00:03:49.537Z,43.37
2019-02-22T00:06:18.881Z,45.93
2019-02-22T00:08:47.360Z,44.83
2019-02-22T00:11:15.799Z,46.67
2019-02-22T00:13:44.256Z,43.67
2019-02-22T00:16:12.700Z,45.77
2019-02-22T00:18:41.164Z,46.50
2019-02-22T00:21:09.628Z,44.40
2019-02-22T00:23:38.131Z,43.73
2019-02-22T00:26:06.570Z,45.77
2019-02-22T00:28:36.070Z,43.53
2019-02-22T00:31:04.634Z,47.20
2019-02-22T00:33:33.072Z,45.03
2019-02-22T00:36:03.202Z,50.23
2019-02-22T00:38:31.692Z,46.53
2019-02-22T00:41:00.147Z,45.33
2019-02-22T00:43:28.654Z,44.20
2019-02-22T00:45:57.093Z,46.13
2019-02-22T00:48:25.529Z,46.57
2019-02-22T00:50:59.551Z,47.57
2019-02-22T00:53:25.934Z,48.73
2019-02-22T00:55:55.916Z,49.30
2019-02-22T00:58:24.492Z,48.17
2019-02-22T01:00:53.012Z,46.03
2019-02-22T01:03:21.458Z,49.43
2019-02-22T01:05:50.054Z,47.63
2019-02-22T01:08:23.029Z,49.10
2019-02-22T01:10:48.643Z,46.17
2019-02-22T01:13:17.124Z,46.80
2019-02-22T01:15:45.601Z,46.18
2019-02-22T01:18:21.304Z,46.73
2019-02-22T01:20:54.513Z,48.03
2019-02-22T01:23:20.002Z,48.73
2019-02-22T01:25:48.445Z,43.90
2019-02-22T01:28:16.888Z,46.18
2019-02-22T01:30:45.362Z,43.83
2019-02-22T01:33:13.870Z,42.53
2019-02-22T01:35:43.940Z,43.28
2019-02-22T01:38:12.397Z,47.40
2019-02-22T01:40:43.928Z,42.73
2019-02-22T01:43:11.296Z,44.77
2019-02-22T01:45:39.849Z,46.13
2019-02-22T01:48:08.361Z,44.73
2019-02-22T01:50:36.855Z,41.10
2019-02-22T01:53:06.597Z,42.73
2019-02-22T01:55:35.017Z,42.53
2019-02-22T01:58:03.834Z,43.67
2019-02-22T02:00:32.382Z,43.47
2019-02-22T02:03:01.189Z,44.53
2019-02-22T02:05:29.655Z,42.67
2019-02-22T02:07:58.092Z,48.07
2019-02-22T02:10:26.616Z,43.73
2019-02-22T02:12:55.224Z,48.60
2019-02-22T02:15:23.813Z,44.40
2019-02-22T02:17:52.585Z,43.73
2019-02-22T02:20:21.580Z,46.40
2019-02-22T02:22:50.385Z,47.83
2019-02-22T02:25:22.944Z,45.70
2019-02-22T02:27:50.694Z,44.03
2019-02-22T02:30:19.171Z,46.93
2019-02-22T02:32:47.924Z,46.05
2019-02-22T02:35:16.433Z,45.30
2019-02-22T02:37:46.514Z,43.60
2019-02-22T02:40:14.956Z,44.80
2019-02-22T02:42:44.827Z,50.73
2019-02-22T02:45:13.350Z,46.35
2019-02-22T02:47:41.880Z,47.87
2019-02-22T02:50:11.889Z,47.57
2019-02-22T02:52:41.248Z,46.90
2019-02-22T02:55:30.623Z,48.57
2019-02-22T02:57:59.160Z,43.53
2019-02-22T03:00:27.678Z,48.80
2019-02-22T03:02:56.135Z,49.50
2019-02-22T03:05:26.241Z,49.70
2019-02-22T03:07:59.920Z,45.00
2019-02-22T03:10:28.428Z,43.73
2019-02-22T03:12:56.896Z,46.87
2019-02-22T03:15:25.385Z,51.37
2019-02-22T03:17:55.356Z,50.80
2019-02-22T03:20:23.814Z,47.93
2019-02-22T03:22:53.857Z,51.93
2019-02-22T03:25:22.317Z,51.07
2019-02-22T03:27:50.835Z,48.87
2019-02-22T03:30:19.331Z,52.57
2019-02-22T03:32:47.819Z,49.60
2019-02-22T03:35:16.261Z,50.47
2019-02-22T03:37:44.691Z,57.33
2019-02-22T03:40:14.853Z,51.37
2019-02-22T03:42:43.308Z,52.03
2019-02-22T03:45:11.932Z,52.17
2019-02-22T03:47:40.367Z,49.40
2019-02-22T03:50:09.041Z,53.23
2019-02-22T03:52:39.135Z,50.70
2019-02-22T03:55:10.752Z,48.77
2019-02-22T03:57:39.294Z,53.77
2019-02-22T04:00:12.371Z,54.90
2019-02-22T04:02:42.169Z,54.40
2019-02-22T04:05:12.245Z,57.38
2019-02-22T04:07:40.669Z,51.57
2019-02-22T04:10:09.578Z,54.42
2019-02-22T04:12:38.153Z,50.73
2019-02-22T04:15:09.372Z,50.17
2019-02-22T04:17:37.858Z,55.77
2019-02-22T04:20:07.838Z,57.33
2019-02-22T04:22:36.309Z,56.40
2019-02-22T04:25:06.234Z,52.27
2019-02-22T04:27:34.720Z,56.37
2019-02-22T04:30:03.505Z,48.77
2019-02-22T04:32:33.493Z,57.13
2019-02-22T04:35:02.029Z,53.47
2019-02-22T04:37:32.119Z,52.78
2019-02-22T04:40:00.610Z,54.80
2019-02-22T04:42:29.128Z,54.50
2019-02-22T04:44:57.578Z,56.53
2019-02-22T04:47:26.086Z,51.80
2019-02-22T04:49:56.142Z,53.92
2019-02-22T04:52:24.603Z,51.67
2019-02-22T04:54:53.088Z,57.43
2019-02-22T04:57:21.535Z,54.63
2019-02-22T04:59:49.960Z,59.95
2019-02-22T05:02:18.949Z,59.13
2019-02-22T05:04:47.463Z,55.43
2019-02-22T05:07:17.461Z,57.30
2019-02-22T05:09:45.936Z,60.97
2019-02-22T05:12:16.327Z,56.63
2019-02-22T05:14:44.920Z,54.47
2019-02-22T05:17:20.604Z,52.80
2019-02-22T05:19:49.040Z,50.00
2019-02-22T05:22:20.718Z,51.20
2019-02-22T05:24:50.863Z,50.07
2019-02-22T05:27:19.450Z,52.03
2019-02-22T05:29:49.923Z,49.87
2019-02-22T05:32:18.111Z,46.42
2019-02-22T05:34:46.568Z,50.33
2019-02-22T05:37:15.045Z,47.67
2019-02-22T05:39:43.493Z,49.90
2019-02-22T05:42:22.497Z,45.97
2019-02-22T05:44:42.241Z,43.60
2019-02-22T05:47:10.715Z,47.17
2019-02-22T05:49:39.353Z,48.00
2019-02-22T05:52:07.872Z,45.90
2019-02-22T05:54:36.346Z,50.13
2019-02-22T05:57:04.876Z,48.57
2019-02-22T05:59:33.551Z,46.60
2019-02-22T06:02:05.256Z,46.40
2019-02-22T06:04:33.708Z,43.77
2019-02-22T06:07:02.153Z,46.75
2019-02-22T06:09:30.718Z,43.30
2019-02-22T06:11:59.223Z,43.00
2019-02-22T06:14:28.522Z,41.93
2019-02-22T06:16:56.966Z,42.13
2019-02-22T06:19:25.459Z,42.97
2019-02-22T06:21:54.249Z,42.93
2019-02-22T06:24:22.705Z,44.60
2019-02-22T06:26:51.217Z,41.20
2019-02-22T06:29:19.681Z,44.27
2019-02-22T06:31:48.111Z,43.60
2019-02-22T06:34:16.576Z,40.23
2019-02-22T06:40:07.913Z,39.57
2019-02-22T06:42:45.198Z,39.25
2019-02-22T06:45:08.267Z,38.00
2019-02-22T06:47:37.475Z,40.90
2019-02-22T06:50:08.769Z,35.95
2019-02-22T06:52:37.276Z,36.15
2019-02-22T06:55:06.218Z,37.80
2019-02-22T06:57:34.775Z,36.38
2019-02-22T07:00:05.305Z,41.87
2019-02-22T07:02:34.446Z,37.43
2019-02-22T07:05:02.890Z,41.23
2019-02-22T07:07:31.360Z,38.97
2019-02-22T07:09:59.787Z,40.45
2019-02-22T07:12:32.862Z,37.90
2019-02-22T07:15:01.357Z,36.00
2019-02-22T07:17:29.966Z,41.08
2019-02-22T07:19:58.441Z,39.87
2019-02-22T07:22:26.893Z,45.47
2019-02-22T07:24:55.514Z,41.30
2019-02-22T07:27:24.037Z,38.40
2019-02-22T07:29:52.487Z,42.98
2019-02-22T07:32:21.017Z,41.97
2019-02-22T07:34:49.452Z,42.53
2019-02-22T07:37:20.050Z,39.60
2019-02-22T07:39:48.164Z,42.20
2019-02-22T07:42:16.601Z,41.67
2019-02-22T07:44:47.202Z,42.20
2019-02-22T07:47:15.644Z,40.48
2019-02-22T07:49:44.111Z,42.00
2019-02-22T07:52:12.620Z,39.90
2019-02-22T07:54:41.098Z,39.07
2019-02-22T07:57:09.544Z,41.02
2019-02-22T07:59:37.996Z,40.57
2019-02-22T08:02:06.802Z,39.27
2019-02-22T08:04:35.294Z,38.50
2019-02-22T08:07:03.775Z,36.95
2019-02-22T08:09:32.957Z,38.67
2019-02-22T08:12:02.885Z,44.50
2019-02-22T08:14:31.466Z,35.97
2019-02-22T08:17:00.045Z,40.30
2019-02-22T08:19:28.611Z,44.07
2019-02-22T08:21:57.075Z,39.73
2019-02-22T08:24:26.062Z,40.47
2019-02-22T08:26:59.915Z,37.77
2019-02-22T08:29:32.009Z,42.53
2019-02-22T08:32:00.185Z,38.17
2019-02-22T08:34:28.723Z,37.80
2019-02-22T08:36:57.174Z,40.07
2019-02-22T08:39:28.490Z,38.57
2019-02-22T08:41:57.046Z,35.87
2019-02-22T08:44:25.489Z,33.63
2019-02-22T08:46:54.037Z,36.90
2019-02-22T08:49:22.475Z,38.97
2019-02-22T08:51:50.945Z,38.00
2019-02-22T08:54:19.401Z,35.00
2019-02-22T08:56:47.862Z,35.17
2019-02-22T08:59:17.841Z,37.20
2019-02-22T09:01:46.299Z,37.67
2019-02-22T09:04:19.592Z,34.37
2019-02-22T09:06:44.992Z,36.40
2019-02-22T09:09:13.424Z,34.90
2019-02-22T09:11:41.868Z,32.47
2019-02-22T09:14:10.328Z,32.63
2019-02-22T09:16:41.676Z,35.55
2019-02-22T09:19:10.167Z,30.03
2019-02-22T09:21:38.635Z,30.63
2019-02-22T09:24:08.643Z,33.97
2019-02-22T09:26:37.075Z,33.23
2019-02-22T09:29:05.558Z,30.07
2019-02-22T09:31:34.066Z,32.20
2019-02-22T09:34:02.515Z,31.93
2019-02-22T09:36:30.940Z,33.80
2019-02-22T09:38:59.392Z,33.97
2019-02-22T09:41:27.855Z,35.03
2019-02-22T09:43:56.319Z,32.60
2019-02-22T09:46:24.792Z,29.40
2019-02-22T09:48:55.629Z,31.20
2019-02-22T09:51:24.109Z,33.10
2019-02-22T09:53:54.196Z,31.45
2019-02-22T09:56:22.824Z,36.63
2019-02-22T09:58:51.585Z,35.13
2019-02-22T10:01:21.661Z,35.37
2019-02-22T10:03:50.079Z,36.93
2019-02-22T10:06:18.526Z,33.60
2019-02-22T10:08:46.983Z,37.37
2019-02-22T10:11:15.492Z,39.60
2019-02-22T10:13:44.676Z,31.60
2019-02-22T10:16:14.175Z,31.53
2019-02-22T10:18:42.721Z,32.15
2019-02-22T10:21:11.171Z,30.37
2019-02-22T10:23:41.209Z,31.30
2019-02-22T10:26:09.720Z,32.43
2019-02-22T10:28:38.213Z,30.23
2019-02-22T10:31:08.332Z,30.33
2019-02-22T10:33:37.280Z,32.50
2019-02-22T10:36:08.176Z,32.23
2019-02-22T10:38:39.165Z,40.00
2019-02-22T10:41:07.632Z,31.68
2019-02-22T10:43:38.739Z,34.33
2019-02-22T10:46:07.169Z,33.47
2019-02-22T10:48:35.653Z,30.53
2019-02-22T10:51:09.467Z,29.13
2019-02-22T10:53:37.948Z,32.77
2019-02-22T10:56:09.267Z,31.95
2019-02-22T10:58:37.823Z,30.83
2019-02-22T11:01:06.393Z,30.55
2019-02-22T11:03:34.877Z,32.67
2019-02-22T11:06:03.463Z,28.67
2019-02-22T11:08:31.964Z,28.47
2019-02-22T11:11:00.416Z,28.87
2019-02-22T11:13:28.956Z,27.43
2019-02-22T11:15:58.633Z,24.87
2019-02-22T11:18:27.216Z,22.43
2019-02-22T11:20:55.714Z,24.33
2019-02-22T11:23:24.172Z,22.07
2019-02-22T11:25:52.648Z,15.77
2019-02-22T11:28:22.808Z,14.63
2019-02-22T11:30:51.336Z,12.13
2019-02-22T11:33:19.899Z,9.80
2019-02-22T11:35:48.513Z,8.07
2019-02-22T11:38:16.946Z,8.35
2019-02-22T11:40:45.389Z,8.05
2019-02-22T11:43:13.857Z,7.00
2019-02-22T11:45:42.615Z,8.08
2019-02-22T11:48:11.079Z,9.33
2019-02-22T11:50:39.671Z,10.53
2019-02-22T11:53:08.159Z,12.13
2019-02-22T11:55:36.707Z,9.40
2019-02-22T11:58:05.230Z,10.08
2019-02-22T12:00:34.019Z,10.23
2019-02-22T12:03:21.118Z,8.93
2019-02-22T12:05:34.443Z,10.37
2019-02-22T12:08:03.663Z,10.82
2019-02-22T12:10:32.249Z,10.90
2019-02-22T12:13:01.711Z,11.63
2019-02-22T12:15:31.555Z,11.13
2019-02-22T12:18:00.166Z,13.30
2019-02-22T12:20:28.596Z,12.77
2019-02-22T12:22:57.160Z,13.30
2019-02-22T12:25:27.204Z,13.75
2019-02-22T12:27:57.243Z,14.63
2019-02-22T12:30:25.910Z,16.75
2019-02-22T12:32:54.497Z,15.53
2019-02-22T12:35:23.074Z,12.80
2019-02-22T12:37:51.616Z,35.63
2019-02-22T12:40:20.288Z,13.07
2019-02-22T12:42:48.817Z,18.53
2019-02-22T12:45:17.340Z,14.97
2019-02-22T12:47:46.053Z,15.80
2019-02-22T12:50:16.241Z,12.70
2019-02-22T12:52:44.782Z,11.57
2019-02-22T12:55:13.477Z,11.53
2019-02-22T12:57:42.524Z,11.20
2019-02-22T13:00:19.159Z,10.63
2019-02-22T13:02:47.685Z,14.95
2019-02-22T13:05:18.834Z,10.70
2019-02-22T13:07:47.279Z,17.67
2019-02-22T13:10:15.789Z,11.43
2019-02-22T13:12:44.332Z,8.97
2019-02-22T13:15:14.488Z,9.80
2019-02-22T13:17:43.189Z,9.07
2019-02-22T13:20:11.752Z,8.77
2019-02-22T13:22:40.207Z,9.67
2019-02-22T13:25:11.019Z,8.37
2019-02-22T13:27:39.464Z,8.73
2019-02-22T13:30:15.241Z,7.90
2019-02-22T13:32:43.688Z,7.83
2019-02-22T13:35:12.860Z,6.85
2019-02-22T13:37:41.669Z,6.80
2019-02-22T13:40:15.433Z,7.00
2019-02-22T13:42:45.646Z,7.40
2019-02-22T13:45:25.952Z,11.97
2019-02-22T13:47:45.149Z,10.68
2019-02-22T13:50:17.985Z,7.73
2019-02-22T13:52:48.263Z,6.67
2019-02-22T13:55:16.878Z,7.03
2019-02-22T13:57:45.405Z,7.05
2019-02-22T14:00:16.249Z,7.57
2019-02-22T14:02:44.699Z,8.30
2019-02-22T14:05:13.564Z,7.17
2019-02-22T14:08:01.328Z,6.57
2019-02-22T14:10:29.790Z,6.70
2019-02-22T14:12:58.214Z,6.80
2019-02-22T14:15:36.980Z,8.53
2019-02-22T14:17:56.913Z,11.73
2019-02-22T14:20:25.496Z,11.97
2019-02-22T14:22:55.973Z,14.00
2019-02-22T14:25:24.506Z,11.00
2019-02-22T14:27:53.151Z,10.80
2019-02-22T14:30:21.741Z,10.10
2019-02-22T14:32:50.296Z,9.73
2019-02-22T14:35:18.826Z,9.03
2019-02-22T14:37:47.319Z,9.60
2019-02-22T14:40:15.908Z,10.18
2019-02-22T14:42:45.914Z,8.50
2019-02-22T14:45:15.508Z,10.53
2019-02-22T14:47:47.761Z,10.00
2019-02-22T14:50:18.425Z,9.60
2019-02-22T14:52:49.071Z,10.80
2019-02-22T14:55:17.561Z,13.33
2019-02-22T14:57:46.095Z,12.50
2019-02-22T15:00:19.786Z,14.63
2019-02-22T15:02:48.374Z,15.93
2019-02-22T15:05:16.935Z,15.10
2019-02-22T15:07:45.523Z,14.50
2019-02-22T15:10:19.342Z,15.90
2019-02-22T15:12:47.953Z,15.53
2019-02-22T15:15:18.204Z,15.17
2019-02-22T15:17:59.832Z,14.77
2019-02-22T15:20:28.347Z,14.80
2019-02-22T15:22:56.969Z,14.63
2019-02-22T15:25:25.675Z,15.53
2019-02-22T15:27:54.296Z,15.23
2019-02-22T15:30:22.812Z,12.63
2019-02-22T15:33:05.631Z,13.28
2019-02-22T15:35:29.379Z,12.23
2019-02-22T15:37:57.878Z,13.70
2019-02-22T15:40:27.610Z,12.23
2019-02-22T15:45:32.689Z,10.03
2019-02-22T15:48:03.226Z,14.03
2019-02-22T15:50:31.732Z,9.87
2019-02-22T15:53:00.265Z,10.23
2019-02-22T15:55:28.897Z,10.00
2019-02-22T15:57:57.334Z,10.35
2019-02-22T16:00:36.307Z,10.45
2019-02-22T16:03:05.044Z,10.23
2019-02-22T16:05:35.241Z,11.18
2019-02-22T16:08:16.906Z,11.13
2019-02-22T16:10:51.626Z,9.15
2019-02-22T16:13:15.739Z,10.03
2019-02-22T16:15:50.931Z,11.23
2019-02-22T16:18:23.244Z,11.57
2019-02-22T16:20:46.884Z,10.40
2019-02-22T16:23:15.580Z,11.33
2019-02-22T16:25:44.097Z,11.27
2019-02-22T16:28:12.725Z,9.90
2019-02-22T16:30:41.431Z,12.30
2019-02-22T16:33:09.972Z,12.15
2019-02-22T16:35:42.454Z,11.90
2019-02-22T16:38:12.537Z,11.53
2019-02-22T16:40:40.976Z,11.63
2019-02-22T16:43:10.984Z,11.33
2019-02-22T16:45:39.451Z,10.43
2019-02-22T16:48:07.992Z,12.37
2019-02-22T16:50:36.584Z,11.47
2019-02-22T16:53:05.111Z,18.23
2019-02-22T16:55:33.659Z,19.10
2019-02-22T16:58:02.189Z,15.43
2019-02-22T17:00:30.804Z,14.68
2019-02-22T17:03:06.715Z,13.13
2019-02-22T17:05:32.906Z,12.10
2019-02-22T17:08:01.494Z,11.73
2019-02-22T17:10:29.958Z,11.60
2019-02-22T17:12:58.549Z,12.53
2019-02-22T17:15:29.885Z,11.00
2019-02-22T17:18:10.671Z,12.58
2019-02-22T17:20:30.163Z,12.97
2019-02-22T17:22:58.663Z,11.87
2019-02-22T17:25:28.699Z,11.90
2019-02-22T17:27:57.355Z,12.17
2019-02-22T17:30:30.850Z,11.37
2019-02-22T17:33:05.182Z,10.40
2019-02-22T17:35:34.231Z,11.78
2019-02-22T17:38:09.516Z,11.40
2019-02-22T17:40:41.118Z,11.47
2019-02-22T17:43:09.646Z,11.27
2019-02-22T17:45:39.618Z,11.90
2019-02-22T17:48:15.209Z,11.63
2019-02-22T17:50:45.853Z,12.05
2019-02-22T17:53:21.732Z,11.75
2019-02-22T17:55:51.221Z,12.33
2019-02-22T17:58:24.773Z,11.43
2019-02-22T18:00:59.320Z,15.30
2019-02-22T18:06:00.770Z,12.73
2019-02-22T18:08:29.350Z,11.40
2019-02-22T18:10:57.915Z,12.07
2019-02-22T18:13:26.435Z,13.23
2019-02-22T18:15:54.994Z,16.03
2019-02-22T18:18:23.535Z,13.73
2019-02-22T18:20:52.048Z,11.93
2019-02-22T18:23:20.645Z,13.00
2019-02-22T18:25:49.283Z,12.37
2019-02-22T18:28:17.879Z,12.43
2019-02-22T18:30:46.521Z,22.45
2019-02-22T18:33:15.151Z,17.23
2019-02-22T18:35:43.678Z,12.95
2019-02-22T18:38:12.286Z,11.03
2019-02-22T18:40:40.935Z,11.48
2019-02-22T18:43:09.547Z,11.47
2019-02-22T18:45:38.176Z,12.10
2019-02-22T18:48:06.831Z,10.97
2019-02-22T18:50:35.304Z,10.90
2019-02-22T18:53:03.783Z,11.90
2019-02-22T18:55:32.389Z,11.53
2019-02-22T18:58:00.992Z,11.03
2019-02-22T19:00:29.639Z,12.27
2019-02-22T19:02:58.188Z,12.07
2019-02-22T19:05:26.850Z,11.00
2019-02-22T19:07:55.472Z,10.33
2019-02-22T19:10:24.065Z,10.77
2019-02-22T19:12:52.555Z,10.70
2019-02-22T19:15:21.344Z,10.40
2019-02-22T19:17:50.057Z,10.57
2019-02-22T19:20:20.123Z,11.33
2019-02-22T19:22:48.697Z,12.33
2019-02-22T19:25:17.243Z,13.10
2019-02-22T19:27:46.711Z,14.47
2019-02-22T19:30:20.601Z,13.27
2019-02-22T19:32:49.223Z,12.90
2019-02-22T19:35:18.659Z,13.53
2019-02-22T19:37:47.344Z,15.57
2019-02-22T19:40:18.989Z,15.87
2019-02-22T19:42:47.485Z,17.30
2019-02-22T19:45:15.972Z,15.75
2019-02-22T19:47:44.606Z,18.27
2019-02-22T19:50:14.265Z,17.83
2019-02-22T19:52:42.864Z,18.82
2019-02-22T19:55:13.557Z,19.67
2019-02-22T19:57:42.102Z,19.42
2019-02-22T20:00:13.514Z,20.70
2019-02-22T20:02:42.116Z,20.80
2019-02-22T20:05:12.710Z,20.85
2019-02-22T20:07:41.299Z,21.37
2019-02-22T20:10:18.241Z,20.67
2019-02-22T20:12:45.473Z,22.53
2019-02-22T20:15:16.570Z,19.70
2019-02-22T20:17:53.738Z,21.63
2019-02-22T20:20:18.004Z,21.83
2019-02-22T20:22:46.640Z,24.73
2019-02-22T20:25:15.318Z,24.90
2019-02-22T20:27:43.958Z,21.90
2019-02-22T20:30:16.474Z,20.97
2019-02-22T20:32:45.147Z,21.13
2019-02-22T20:35:16.948Z,20.77
2019-02-22T20:37:52.882Z,19.13
2019-02-22T20:40:16.885Z,22.37
2019-02-22T20:42:45.475Z,19.97
2019-02-22T20:45:14.203Z,21.77
2019-02-22T20:47:42.897Z,22.97
2019-02-22T20:50:14.738Z,21.87
2019-02-22T20:52:43.429Z,21.50
2019-02-22T20:55:12.280Z,21.27
2019-02-22T20:57:41.002Z,21.05
2019-02-22T21:00:24.191Z,20.97
2019-02-22T21:02:52.762Z,22.85
2019-02-22T21:05:21.293Z,25.60
2019-02-22T21:07:50.719Z,23.37
2019-02-22T21:10:20.330Z,21.27
2019-02-22T21:12:49.060Z,21.17
2019-02-22T21:15:17.727Z,24.27
2019-02-22T21:17:46.319Z,25.17
2019-02-22T21:20:16.653Z,20.83
2019-02-22T21:22:45.312Z,22.50
2019-02-22T21:25:13.933Z,20.40
2019-02-22T21:27:42.631Z,20.40
2019-02-22T21:30:21.820Z,22.15
2019-02-22T21:32:50.329Z,26.03
2019-02-22T21:35:19.075Z,22.13
2019-02-22T21:37:48.244Z,20.50
2019-02-22T21:40:16.809Z,20.70
2019-02-22T21:42:45.270Z,20.83
2019-02-22T21:45:15.219Z,20.95
2019-02-22T21:47:54.251Z,21.27
2019-02-22T21:50:17.307Z,20.53
2019-02-22T21:52:45.766Z,19.70
2019-02-22T21:55:15.306Z,20.97
2019-02-22T21:57:43.968Z,20.68
2019-02-22T22:00:20.712Z,19.53
2019-02-22T22:02:49.178Z,19.55
2019-02-22T22:05:17.812Z,25.17
2019-02-22T22:07:46.449Z,18.93
2019-02-22T22:10:15.211Z,20.73
2019-02-22T22:12:43.766Z,20.53
2019-02-22T22:15:14.079Z,20.27
2019-02-22T22:17:42.628Z,19.60
2019-02-22T22:20:11.794Z,20.00
2019-02-22T22:22:40.507Z,20.30
2019-02-22T22:25:16.337Z,20.03
2019-02-22T22:27:45.611Z,18.40
2019-02-22T22:30:15.221Z,19.27
2019-02-22T22:32:43.929Z,18.30
2019-02-22T22:35:16.488Z,19.37
2019-02-22T22:37:45.042Z,17.97
2019-02-22T22:40:13.535Z,19.65
2019-02-22T22:42:42.104Z,18.23
2019-02-22T22:45:16.296Z,19.43
2019-02-22T22:47:45.055Z,19.67
2019-02-22T22:50:15.535Z,21.62
2019-02-22T22:52:44.202Z,18.27
2019-02-22T22:55:13.162Z,19.42
2019-02-22T22:57:41.805Z,18.07
2019-02-22T23:00:40.361Z,17.67
2019-02-22T23:03:09.266Z,18.27
2019-02-22T23:05:37.851Z,20.93
2019-02-22T23:08:06.434Z,18.10
2019-02-22T23:10:35.088Z,19.27
2019-02-22T23:13:03.721Z,18.83
2019-02-22T23:15:32.488Z,17.67
2019-02-22T23:18:00.938Z,18.23
2019-02-22T23:20:30.382Z,17.90
2019-02-22T23:22:59.112Z,17.23
2019-02-22T23:25:27.642Z,16.83
2019-02-22T23:27:56.241Z,18.13
2019-02-22T23:30:24.874Z,18.40
2019-02-22T23:32:53.426Z,18.57
2019-02-22T23:35:22.091Z,17.17
2019-02-22T23:37:51.100Z,18.23
2019-02-22T23:40:19.712Z,18.42
2019-02-22T23:42:48.971Z,17.83
2019-02-22T23:45:17.425Z,19.70
2019-02-22T23:47:45.900Z,18.00
2019-02-22T23:50:14.388Z,17.25
2019-02-22T23:52:42.909Z,17.97
2019-02-22T23:55:12.046Z,17.85
2019-02-22T23:57:40.500Z,17.90
